Terminal Aerodrome Forecast
Issued by NWS Albany, NY

Home | Current Version | Previous Version | Text Only | Print | Product List | Glossary On
Versions: 1 2 3 4 5 6 7 8 9 10 11 12 13 14 15 16 17 18 19 20 21 22 23 24 25 26 27 28 29 30 31 32
583
FTUS41 KALY 112333
TAFPOU
TAF
KPOU 112333Z 1200/1224 VRB03KT P6SM SCT040 BKN250
     FM120700 VRB04KT P6SM BKN040
     FM121100 13004KT 2SM -RASN OVC030
     FM121300 19006KT 5SM -SHRA OVC045
     FM122300 24007KT 4SM -SHRA OVC040=

USA.gov is the U.S. government's official web portal to all federal, state and local government web resources and services.